Abbotsford, Wisconsin
Current Conditions -  °F | °C
As of 10:15 AM on Thursday 18 Dec 2014 (Local Time) from KMDZ Reporting Station
Overcast Overcast  
Wind Chill: 16°   Ceiling: 1200
Heat Index: 22°   Visibility: 7mi
Dew Point: 18°   Wind: 5mph
Humidity: 85%   Direction: 90°E
Pressure: 30.26"   Gusts: NA
Location:  44.95°N, 90.32°W
Report Text: KMDZ 181615Z AUTO 09004KT 7SM OVC012 M05/M08 A3026 RMK AO2 T10551077
Loading
Personal Weather Stations






























Interactive Weather Map New forecast layout! Learn more

10-Day Weather Forecast

Advertisements
Track Severe Weather on mobile